Time;durP1;ratioP1;P1;durP2;ratioP2;P2;SDS_P1;SDS_P2;PMS_P1;PMS_P2;Temp;Humidity;BMP_temperature;BMP_pressure;BME280_temperature;BME280_humidity;BME280_pressure;Samples;Min_cycle;Max_cycle;Signal;HPM_P1;HPM_P2
2022/08/02 00:02:13;;;;;;;12.10;4.18;;;;;;;;;;4813749;29;20428;-82
2022/08/02 00:04:46;;;;;;;8.45;4.32;;;;;;;;;;4825240;29;20062;-81
2022/08/02 00:07:13;;;;;;;24.00;4.30;;;;;;;;;;4821059;29;20146;-81
2022/08/02 00:09:39;;;;;;;10.57;4.72;;;;;;;;;;4807301;29;20054;-81
2022/08/02 00:12:06;;;;;;;8.52;4.30;;;;;;;;;;4822696;29;20125;-80
2022/08/02 00:14:32;;;;;;;12.40;4.90;;;;;;;;;;4821465;29;20102;-81
2022/08/02 00:16:58;;;;;;;13.70;5.07;;;;;;;;;;4821772;29;20038;-81
2022/08/02 00:19:24;;;;;;;14.23;5.13;;;;;;;;;;4820386;29;20046;-80
2022/08/02 00:21:50;;;;;;;13.75;4.60;;;;;;;;;;4815432;29;20062;-80
2022/08/02 00:24:16;;;;;;;16.45;5.75;;;;;;;;;;4817046;29;20045;-81
2022/08/02 00:26:42;;;;;;;17.73;4.65;;;;;;;;;;4818101;29;20718;-80
2022/08/02 00:29:08;;;;;;;13.15;4.55;;;;;;;;;;4818061;29;20408;-81
2022/08/02 00:31:35;;;;;;;19.85;5.28;;;;;;;;;;4816667;29;20058;-81
2022/08/02 00:34:01;;;;;;;11.75;4.07;;;;;;;;;;4788078;29;20412;-81
2022/08/02 00:36:27;;;;;;;13.43;3.85;;;;;;;;;;4815882;29;20134;-80
2022/08/02 00:38:53;;;;;;;11.02;3.90;;;;;;;;;;4816050;29;20049;-81
2022/08/02 00:41:21;;;;;;;10.52;4.13;;;;;;;;;;4816870;29;20111;-80
2022/08/02 00:43:47;;;;;;;10.80;4.82;;;;;;;;;;4817274;29;20053;-81
2022/08/02 00:46:14;;;;;;;8.75;4.00;;;;;;;;;;4771806;29;20521;-80
2022/08/02 00:48:40;;;;;;;11.02;3.85;;;;;;;;;;4802477;29;20046;-80
2022/08/02 00:51:06;;;;;;;11.60;4.60;;;;;;;;;;4815898;29;20046;-80
2022/08/02 00:53:32;;;;;;;20.10;4.28;;;;;;;;;;4819065;29;20143;-79
2022/08/02 00:55:58;;;;;;;16.25;4.10;;;;;;;;;;4818170;29;20130;-81
2022/08/02 00:58:24;;;;;;;13.52;3.90;;;;;;;;;;4812834;29;20058;-81
2022/08/02 01:00:56;;;;;;;10.45;4.20;;;;;;;;;;4816385;29;20137;-80
2022/08/02 01:03:22;;;;;;;11.65;4.22;;;;;;;;;;4816349;29;20061;-80
2022/08/02 01:05:49;;;;;;;14.02;4.25;;;;;;;;;;4789834;29;20107;-80
2022/08/02 01:08:15;;;;;;;9.52;4.00;;;;;;;;;;4817692;29;20039;-81
2022/08/02 01:10:41;;;;;;;15.55;4.15;;;;;;;;;;4816300;29;20133;-79
2022/08/02 01:13:07;;;;;;;11.02;4.05;;;;;;;;;;4818036;29;20107;-81
2022/08/02 01:15:38;;;;;;;8.60;3.85;;;;;;;;;;4818879;29;20045;-80
2022/08/02 01:18:18;;;;;;;11.57;4.22;;;;;;;;;;4796020;29;20590;-81
2022/08/02 01:21:03;;;;;;;14.60;4.03;;;;;;;;;;4798165;29;20168;-80
2022/08/02 01:23:41;;;;;;;8.35;3.72;;;;;;;;;;4803575;29;20118;-80
2022/08/02 01:26:10;;;;;;;8.50;3.97;;;;;;;;;;4816799;29;20061;-80
2022/08/02 01:28:52;;;;;;;11.55;4.00;;;;;;;;;;4818134;29;20082;-80
2022/08/02 01:31:20;;;;;;;14.10;4.47;;;;;;;;;;4796315;29;20580;-81
2022/08/02 01:34:02;;;;;;;10.80;4.15;;;;;;;;;;4817122;29;20500;-80
2022/08/02 01:36:30;;;;;;;11.23;4.55;;;;;;;;;;4817208;29;20069;-79
2022/08/02 01:38:57;;;;;;;10.35;3.88;;;;;;;;;;4799764;29;21120;-81
2022/08/02 01:41:24;;;;;;;14.45;4.07;;;;;;;;;;4814465;29;20492;-81
2022/08/02 01:43:52;;;;;;;16.00;4.38;;;;;;;;;;4804823;29;20080;-80
2022/08/02 01:46:18;;;;;;;13.52;4.75;;;;;;;;;;4800835;29;20518;-80
2022/08/02 01:48:45;;;;;;;11.02;4.50;;;;;;;;;;4798257;29;20046;-80
2022/08/02 01:51:17;;;;;;;12.75;4.70;;;;;;;;;;4797415;29;20050;-80
2022/08/02 01:53:44;;;;;;;12.82;4.40;;;;;;;;;;4815453;29;20082;-81
2022/08/02 01:56:12;;;;;;;14.50;4.30;;;;;;;;;;4814715;29;20058;-80
2022/08/02 01:58:39;;;;;;;13.70;4.68;;;;;;;;;;4818022;29;20092;-80
2022/08/02 02:01:07;;;;;;;8.63;3.92;;;;;;;;;;4811307;29;20034;-80
2022/08/02 02:03:33;;;;;;;11.73;3.90;;;;;;;;;;4809611;29;20062;-81
2022/08/02 02:06:01;;;;;;;15.90;4.82;;;;;;;;;;4807775;29;20363;-80
2022/08/02 02:08:37;;;;;;;11.85;4.03;;;;;;;;;;4822236;29;20050;-81
2022/08/02 02:11:03;;;;;;;12.38;3.90;;;;;;;;;;4800973;29;20054;-80
2022/08/02 02:13:30;;;;;;;8.38;3.95;;;;;;;;;;4816965;29;20406;-80
2022/08/02 02:16:04;;;;;;;8.25;4.00;;;;;;;;;;4775680;29;20058;-81
2022/08/02 02:18:30;;;;;;;;;;;;;;;;;;4816618;29;20042;-81
2022/08/02 02:20:57;;;;;;;15.60;4.32;;;;;;;;;;4812120;29;19929;-80
2022/08/02 02:23:24;;;;;;;10.52;4.20;;;;;;;;;;4813695;29;20046;-80
2022/08/02 02:25:51;;;;;;;9.48;4.40;;;;;;;;;;4802879;29;20042;-80
2022/08/02 02:28:32;;;;;;;12.40;4.10;;;;;;;;;;4815113;29;20038;-80
2022/08/02 02:31:01;;;;;;;10.98;4.32;;;;;;;;;;4811353;29;20475;-80
2022/08/02 02:33:30;;;;;;;10.13;3.72;;;;;;;;;;4815968;29;20427;-80
2022/08/02 02:35:57;;;;;;;12.27;3.90;;;;;;;;;;4812566;29;20046;-80
2022/08/02 02:38:24;;;;;;;16.38;4.28;;;;;;;;;;4811075;29;20107;-79
2022/08/02 02:40:50;;;;;;;12.18;3.75;;;;;;;;;;4813310;29;20828;-79
2022/08/02 02:43:17;;;;;;;10.15;3.92;;;;;;;;;;4799400;29;20412;-80
2022/08/02 02:45:44;;;;;;;14.25;4.03;;;;;;;;;;4779726;29;20457;-80
2022/08/02 02:48:10;;;;;;;12.65;4.28;;;;;;;;;;4811981;29;20066;-79
2022/08/02 02:50:37;;;;;;;11.35;3.92;;;;;;;;;;4816578;29;20133;-80
2022/08/02 02:53:05;;;;;;;9.45;4.05;;;;;;;;;;4817724;29;20042;-79
2022/08/02 02:55:32;;;;;;;16.70;4.55;;;;;;;;;;4820916;29;20064;-80
2022/08/02 02:57:58;;;;;;;15.50;4.90;;;;;;;;;;4819065;29;20472;-80
2022/08/02 03:03:09;;;;;;;14.82;4.50;;;;;;;;;;4819995;29;20119;-80
2022/08/02 03:05:35;;;;;;;7.70;4.43;;;;;;;;;;4817975;29;20400;-80
2022/08/02 03:08:01;;;;;;;10.02;4.30;;;;;;;;;;4816713;29;20057;-80
2022/08/02 03:10:27;;;;;;;10.52;4.18;;;;;;;;;;4815918;29;20074;-80
2022/08/02 03:12:53;;;;;;;17.38;5.00;;;;;;;;;;4802281;29;21762;-80
2022/08/02 03:15:20;;;;;;;16.80;5.72;;;;;;;;;;4818870;29;20042;-80
2022/08/02 03:17:46;;;;;;;12.88;5.10;;;;;;;;;;4819927;29;20050;-80
2022/08/02 03:20:14;;;;;;;15.32;4.82;;;;;;;;;;4799336;29;20045;-80
2022/08/02 03:22:41;;;;;;;11.98;5.57;;;;;;;;;;4817656;29;20038;-80
2022/08/02 03:25:07;;;;;;;13.85;4.80;;;;;;;;;;4817281;29;20045;-78
2022/08/02 03:27:33;;;;;;;15.88;4.80;;;;;;;;;;4817380;29;20050;-80
2022/08/02 03:29:59;;;;;;;13.07;5.03;;;;;;;;;;4816041;29;20415;-80
2022/08/02 03:32:26;;;;;;;12.90;5.25;;;;;;;;;;4800726;29;20586;-79
2022/08/02 03:34:52;;;;;;;17.83;4.93;;;;;;;;;;4818131;29;20050;-80
2022/08/02 03:37:18;;;;;;;11.35;4.70;;;;;;;;;;4816979;29;20094;-79
2022/08/02 03:39:44;;;;;;;19.65;5.50;;;;;;;;;;4816754;29;20042;-80
2022/08/02 03:42:11;;;;;;;12.20;5.28;;;;;;;;;;4814105;29;20160;-80
2022/08/02 03:44:38;;;;;;;16.98;5.20;;;;;;;;;;4818415;29;20685;-79
2022/08/02 03:47:05;;;;;;;11.93;4.70;;;;;;;;;;4811855;29;20050;-80
2022/08/02 03:49:31;;;;;;;16.67;4.97;;;;;;;;;;4815492;29;20050;-79
2022/08/02 03:52:01;;;;;;;20.90;5.60;;;;;;;;;;4803342;29;20050;-79
2022/08/02 03:54:27;;;;;;;13.90;5.00;;;;;;;;;;4799347;29;20553;-80
2022/08/02 03:56:53;;;;;;;15.43;5.40;;;;;;;;;;4800623;29;20457;-80
2022/08/02 03:59:19;;;;;;;18.55;5.15;;;;;;;;;;4797180;29;20058;-80
2022/08/02 04:01:45;;;;;;;13.75;5.30;;;;;;;;;;4809450;29;20183;-80
2022/08/02 04:04:11;;;;;;;10.98;4.50;;;;;;;;;;4809989;29;20104;-80
2022/08/02 04:06:38;;;;;;;15.10;5.05;;;;;;;;;;4814566;29;20046;-79
2022/08/02 04:09:04;;;;;;;18.02;6.63;;;;;;;;;;4817150;29;20110;-79
2022/08/02 04:11:30;;;;;;;14.85;5.43;;;;;;;;;;4812434;29;20061;-79
2022/08/02 04:13:56;;;;;;;25.45;6.18;;;;;;;;;;4800118;29;20555;-79
2022/08/02 04:16:27;;;;;;;17.15;5.68;;;;;;;;;;4824217;29;20423;-79
2022/08/02 04:18:55;;;;;;;15.05;4.88;;;;;;;;;;4815657;29;20059;-79
2022/08/02 04:21:23;;;;;;;10.77;5.18;;;;;;;;;;4803430;29;20054;-79
2022/08/02 04:23:50;;;;;;;12.25;5.30;;;;;;;;;;4821371;29;20050;-80
2022/08/02 04:26:17;;;;;;;7.93;4.60;;;;;;;;;;4818931;29;20511;-79
2022/08/02 04:28:43;;;;;;;15.30;5.25;;;;;;;;;;4816964;29;20070;-79
2022/08/02 04:31:09;;;;;;;15.10;5.57;;;;;;;;;;4801280;29;20081;-79
2022/08/02 04:33:36;;;;;;;16.80;6.45;;;;;;;;;;4815186;29;20042;-80
2022/08/02 04:36:03;;;;;;;16.25;6.38;;;;;;;;;;4815534;29;20054;-81
2022/08/02 04:38:29;;;;;;;14.45;5.63;;;;;;;;;;4810647;29;20056;-80
2022/08/02 04:40:55;;;;;;;15.25;5.35;;;;;;;;;;4814036;29;20042;-80
2022/08/02 04:43:22;;;;;;;11.63;5.28;;;;;;;;;;4817453;29;20097;-80
2022/08/02 04:45:49;;;;;;;12.85;5.70;;;;;;;;;;4814991;29;20168;-80
2022/08/02 04:48:15;;;;;;;17.70;6.10;;;;;;;;;;4783739;29;20058;-80
2022/08/02 04:50:41;;;;;;;15.32;5.70;;;;;;;;;;4799998;29;20057;-80
2022/08/02 04:53:07;;;;;;;16.25;5.38;;;;;;;;;;4815108;29;20043;-80
2022/08/02 04:55:33;;;;;;;11.55;5.63;;;;;;;;;;4814275;29;20512;-81
2022/08/02 04:58:00;;;;;;;15.45;6.07;;;;;;;;;;4814555;29;20083;-80
2022/08/02 05:00:27;;;;;;;21.52;7.38;;;;;;;;;;4799335;29;20042;-79
2022/08/02 05:02:55;;;;;;;15.27;6.53;;;;;;;;;;4818536;29;20039;-78
2022/08/02 05:05:21;;;;;;;17.52;6.90;;;;;;;;;;4833122;29;20081;-79
2022/08/02 05:07:47;;;;;;;17.63;5.93;;;;;;;;;;4815081;29;20053;-80
2022/08/02 05:10:13;;;;;;;11.77;5.70;;;;;;;;;;4797523;29;20049;-80
2022/08/02 05:12:39;;;;;;;17.02;5.90;;;;;;;;;;4817933;29;20042;-80
2022/08/02 05:15:06;;;;;;;15.15;6.18;;;;;;;;;;4816519;29;20515;-80
2022/08/02 05:17:32;;;;;;;14.38;6.15;;;;;;;;;;4823690;29;20061;-80
2022/08/02 05:19:58;;;;;;;17.25;6.10;;;;;;;;;;4817421;29;20054;-80
2022/08/02 05:22:24;;;;;;;17.75;6.03;;;;;;;;;;4815559;29;20231;-80
2022/08/02 05:24:51;;;;;;;13.52;5.82;;;;;;;;;;4815995;29;20065;-79
2022/08/02 05:27:17;;;;;;;14.48;6.88;;;;;;;;;;4815227;29;20031;-80
2022/08/02 05:29:43;;;;;;;14.63;6.28;;;;;;;;;;4816619;29;20049;-80
2022/08/02 05:32:09;;;;;;;21.40;7.03;;;;;;;;;;4817858;29;20057;-80
2022/08/02 05:34:35;;;;;;;9.98;6.10;;;;;;;;;;4817290;29;20130;-81
2022/08/02 05:37:01;;;;;;;17.52;6.20;;;;;;;;;;4816567;29;20046;-80
2022/08/02 05:39:27;;;;;;;12.75;6.75;;;;;;;;;;4815980;29;20144;-80
2022/08/02 05:41:53;;;;;;;16.55;6.55;;;;;;;;;;4816555;29;20043;-79
2022/08/02 05:44:19;;;;;;;19.30;6.82;;;;;;;;;;4814880;29;20053;-80
2022/08/02 05:46:45;;;;;;;13.35;6.40;;;;;;;;;;4814205;29;20606;-80
2022/08/02 05:49:11;;;;;;;13.90;6.40;;;;;;;;;;4817482;29;20046;-81
2022/08/02 05:51:39;;;;;;;14.95;6.38;;;;;;;;;;4816024;29;20058;-81
2022/08/02 05:54:08;;;;;;;13.90;5.57;;;;;;;;;;4818220;29;20134;-80
2022/08/02 05:56:37;;;;;;;15.60;6.00;;;;;;;;;;4815644;29;20058;-79
2022/08/02 05:59:04;;;;;;;16.15;6.00;;;;;;;;;;4815992;29;20054;-79
2022/08/02 06:01:37;;;;;;;11.88;5.43;;;;;;;;;;4817404;29;20058;-80
2022/08/02 06:04:07;;;;;;;13.57;6.32;;;;;;;;;;4818222;29;20145;-80
2022/08/02 06:06:34;;;;;;;14.30;6.60;;;;;;;;;;4809305;29;20137;-79
2022/08/02 06:09:02;;;;;;;13.05;5.68;;;;;;;;;;4816359;29;20042;-79
2022/08/02 06:11:50;;;;;;;15.23;6.13;;;;;;;;;;4816635;29;20062;-79
2022/08/02 06:14:27;;;;;;;;;;;;;;;;;;;;;
2022/08/02 06:17:05;;;;;;;17.88;7.03;;;;;;;;;;4816773;29;20914;-80
2022/08/02 06:19:32;;;;;;;14.05;6.57;;;;;;;;;;4816639;29;20054;-80
2022/08/02 06:22:14;;;;;;;14.52;6.72;;;;;;;;;;4817390;29;20047;-80
2022/08/02 06:24:42;;;;;;;14.85;6.20;;;;;;;;;;4792505;29;20046;-80
2022/08/02 06:27:08;;;;;;;14.45;6.68;;;;;;;;;;4814300;29;20050;-80
2022/08/02 06:29:35;;;;;;;23.30;6.57;;;;;;;;;;4799547;29;20759;-80
2022/08/02 06:32:02;;;;;;;15.90;6.35;;;;;;;;;;4818590;29;20145;-80
2022/08/02 06:34:38;;;;;;;11.88;6.10;;;;;;;;;;4799308;29;20039;-80
2022/08/02 06:37:19;;;;;;;16.27;5.95;;;;;;;;;;4803090;29;20046;-80
2022/08/02 06:39:48;;;;;;;18.15;6.07;;;;;;;;;;4824267;29;20072;-80
2022/08/02 06:42:23;;;;;;;17.73;6.40;;;;;;;;;;4815352;29;20065;-81
2022/08/02 06:44:49;;;;;;;15.48;5.63;;;;;;;;;;4814082;29;20421;-80
2022/08/02 06:47:15;;;;;;;15.55;5.45;;;;;;;;;;4802698;29;20043;-80
2022/08/02 06:49:41;;;;;;;20.58;5.53;;;;;;;;;;4795604;29;20106;-81
2022/08/02 06:52:07;;;;;;;16.92;4.93;;;;;;;;;;4816947;29;20054;-79
2022/08/02 06:54:34;;;;;;;13.35;4.68;;;;;;;;;;4814121;29;20066;-80
2022/08/02 06:57:01;;;;;;;12.85;5.05;;;;;;;;;;4817662;29;20394;-80
2022/08/02 06:59:27;;;;;;;10.90;4.07;;;;;;;;;;4815637;29;20054;-80
2022/08/02 07:01:54;;;;;;;15.45;4.25;;;;;;;;;;4767337;29;20489;-79
2022/08/02 07:04:20;;;;;;;12.88;3.92;;;;;;;;;;4797025;29;20046;-80
2022/08/02 07:06:46;;;;;;;11.88;3.95;;;;;;;;;;4816819;29;20535;-80
2022/08/02 07:09:12;;;;;;;14.93;4.60;;;;;;;;;;4817259;29;20061;-79
2022/08/02 07:11:38;;;;;;;11.20;3.95;;;;;;;;;;4814309;29;20549;-81
2022/08/02 07:14:04;;;;;;;11.23;3.92;;;;;;;;;;4817661;29;20047;-81
2022/08/02 07:16:39;;;;;;;8.73;3.45;;;;;;;;;;4800267;29;20065;-81
2022/08/02 07:19:05;;;;;;;8.65;3.70;;;;;;;;;;4816194;29;20057;-82
2022/08/02 07:21:32;;;;;;;11.13;3.72;;;;;;;;;;4784181;29;20142;-81
2022/08/02 07:23:58;;;;;;;8.32;3.13;;;;;;;;;;4816412;29;20064;-81
2022/08/02 07:26:24;;;;;;;9.00;2.97;;;;;;;;;;4817153;29;20162;-81
2022/08/02 07:28:50;;;;;;;11.85;3.47;;;;;;;;;;4803382;29;20160;-81
2022/08/02 07:31:16;;;;;;;12.38;2.92;;;;;;;;;;4817605;29;20142;-81
2022/08/02 07:33:42;;;;;;;5.35;2.30;;;;;;;;;;4816744;29;20465;-81
2022/08/02 07:36:08;;;;;;;4.72;2.30;;;;;;;;;;4804527;29;20051;-81
2022/08/02 07:38:34;;;;;;;10.55;2.85;;;;;;;;;;4820069;29;20503;-81
2022/08/02 07:41:00;;;;;;;6.95;2.28;;;;;;;;;;4819289;29;20094;-80
2022/08/02 07:43:27;;;;;;;8.60;2.42;;;;;;;;;;4819763;29;20046;-80
2022/08/02 07:45:55;;;;;;;10.55;2.63;;;;;;;;;;4822064;29;20426;-81
2022/08/02 07:48:21;;;;;;;8.75;2.58;;;;;;;;;;4817378;29;20118;-80
2022/08/02 07:50:48;;;;;;;12.95;2.80;;;;;;;;;;4822823;29;20053;-81
2022/08/02 07:53:14;;;;;;;8.00;2.40;;;;;;;;;;4804568;29;21188;-81
2022/08/02 07:55:40;;;;;;;6.32;2.63;;;;;;;;;;4821725;29;20046;-80
2022/08/02 07:58:06;;;;;;;5.25;2.00;;;;;;;;;;4822614;29;20069;-80
2022/08/02 08:00:32;;;;;;;4.82;1.83;;;;;;;;;;4840643;29;20064;-80
2022/08/02 08:02:58;;;;;;;8.48;2.33;;;;;;;;;;4840119;29;20034;-79
2022/08/02 08:05:24;;;;;;;4.80;1.80;;;;;;;;;;4843300;29;20046;-79
2022/08/02 08:07:51;;;;;;;6.78;1.90;;;;;;;;;;4839097;29;20045;-81
2022/08/02 08:10:17;;;;;;;5.95;1.85;;;;;;;;;;4831135;29;20199;-81
2022/08/02 08:12:43;;;;;;;5.82;1.80;;;;;;;;;;4843596;29;20083;-80
2022/08/02 08:15:09;;;;;;;8.38;2.45;;;;;;;;;;4822962;29;20058;-80
2022/08/02 08:17:36;;;;;;;6.78;1.77;;;;;;;;;;4837380;29;20052;-80
2022/08/02 08:20:03;;;;;;;6.05;1.83;;;;;;;;;;4823688;29;20053;-80
2022/08/02 08:22:30;;;;;;;8.20;1.63;;;;;;;;;;4825341;29;20066;-80
2022/08/02 08:24:57;;;;;;;4.22;1.50;;;;;;;;;;4831255;29;20034;-80
2022/08/02 08:28:04;;;;;;;3.97;1.40;;;;;;;;;;4827967;29;20081;-80
2022/08/02 08:30:30;;;;;;;2.90;1.30;;;;;;;;;;4825520;29;20626;-79
2022/08/02 08:32:56;;;;;;;4.00;1.45;;;;;;;;;;4822633;29;20401;-80
2022/08/02 08:35:25;;;;;;;4.45;1.42;;;;;;;;;;4823507;29;20059;-80
2022/08/02 08:38:04;;;;;;;2.15;1.30;;;;;;;;;;4824866;29;20153;-79
2022/08/02 08:40:40;;;;;;;3.85;1.50;;;;;;;;;;4836755;29;20053;-79
2022/08/02 08:43:16;;;;;;;5.18;1.85;;;;;;;;;;4838679;29;20053;-78
2022/08/02 08:45:46;;;;;;;4.38;1.40;;;;;;;;;;4827721;29;20089;-80
2022/08/02 08:48:15;;;;;;;3.17;1.17;;;;;;;;;;4831420;29;20082;-80
2022/08/02 08:50:47;;;;;;;3.60;1.40;;;;;;;;;;4840873;29;20082;-82
2022/08/02 08:53:25;;;;;;;2.38;1.23;;;;;;;;;;4831752;29;20038;-81
2022/08/02 08:55:58;;;;;;;7.82;1.30;;;;;;;;;;4832273;29;20059;-82
2022/08/02 08:58:31;;;;;;;2.55;1.40;;;;;;;;;;4825016;29;20633;-81
2022/08/02 09:00:57;;;;;;;4.60;1.30;;;;;;;;;;4824468;29;20061;-79
2022/08/02 09:03:23;;;;;;;3.20;1.83;;;;;;;;;;4831058;29;20068;-81
2022/08/02 09:05:52;;;;;;;3.05;1.25;;;;;;;;;;4812722;29;20047;-81
2022/08/02 09:08:19;;;;;;;3.42;1.23;;;;;;;;;;4819755;29;20038;-80
2022/08/02 09:10:46;;;;;;;4.10;1.45;;;;;;;;;;4824579;29;20038;-82
2022/08/02 09:13:19;;;;;;;5.00;1.27;;;;;;;;;;4810968;29;20364;-81
2022/08/02 09:15:52;;;;;;;5.00;1.48;;;;;;;;;;4820213;29;20114;-82
2022/08/02 09:18:38;;;;;;;3.80;1.35;;;;;;;;;;4828406;29;20042;-82
2022/08/02 09:21:08;;;;;;;1.98;1.05;;;;;;;;;;4816115;29;20050;-82
2022/08/02 09:23:34;;;;;;;3.40;1.23;;;;;;;;;;4820008;29;20055;-81
2022/08/02 09:26:17;;;;;;;3.08;1.27;;;;;;;;;;4816657;29;20121;-81
2022/08/02 09:28:46;;;;;;;6.15;1.17;;;;;;;;;;4821113;29;20655;-82
2022/08/02 09:31:19;;;;;;;2.03;1.23;;;;;;;;;;4825884;29;20518;-81
2022/08/02 09:33:51;;;;;;;3.03;1.30;;;;;;;;;;4790649;29;20056;-81
2022/08/02 09:36:17;;;;;;;3.55;1.20;;;;;;;;;;4828051;29;20069;-81
2022/08/02 09:38:52;;;;;;;3.05;0.98;;;;;;;;;;4816656;29;20055;-82
2022/08/02 09:41:22;;;;;;;5.25;1.30;;;;;;;;;;4824947;29;20507;-81
2022/08/02 09:43:48;;;;;;;2.42;1.00;;;;;;;;;;4820571;29;20041;-81
2022/08/02 09:46:20;;;;;;;5.22;1.27;;;;;;;;;;4815282;29;20087;-82
2022/08/02 09:48:52;;;;;;;3.13;1.00;;;;;;;;;;4822364;29;20053;-80
2022/08/02 09:51:38;;;;;;;3.15;1.38;;;;;;;;;;4821479;29;20047;-81
2022/08/02 09:54:24;;;;;;;4.25;1.13;;;;;;;;;;4824825;29;20046;-81
2022/08/02 09:56:51;;;;;;;11.23;1.20;;;;;;;;;;4816201;29;20073;-80
2022/08/02 09:59:19;;;;;;;4.28;1.50;;;;;;;;;;4817663;29;20059;-82
2022/08/02 10:01:46;;;;;;;2.10;1.15;;;;;;;;;;4815722;29;20522;-82
2022/08/02 10:04:13;;;;;;;3.50;1.20;;;;;;;;;;4813506;29;20053;-82
2022/08/02 10:06:40;;;;;;;3.55;1.27;;;;;;;;;;4816215;29;20559;-82
2022/08/02 10:09:07;;;;;;;1.88;0.93;;;;;;;;;;4813161;29;20482;-82
2022/08/02 10:11:34;;;;;;;4.80;1.10;;;;;;;;;;4813548;29;20404;-82
2022/08/02 10:14:10;;;;;;;5.93;1.38;;;;;;;;;;4814882;29;20410;-81
2022/08/02 10:16:42;;;;;;;1.83;1.00;;;;;;;;;;4815571;29;20178;-81
2022/08/02 10:19:08;;;;;;;3.08;1.45;;;;;;;;;;4817678;29;20191;-82
2022/08/02 10:21:38;;;;;;;3.05;1.20;;;;;;;;;;4816373;29;20053;-84
2022/08/02 10:24:05;;;;;;;2.38;1.30;;;;;;;;;;4816155;29;20053;-82
2022/08/02 10:26:31;;;;;;;4.15;1.50;;;;;;;;;;4816752;29;20046;-82
2022/08/02 10:29:00;;;;;;;3.75;1.40;;;;;;;;;;4812095;29;20499;-83
2022/08/02 10:31:38;;;;;;;7.30;1.27;;;;;;;;;;4810617;29;20039;-82
2022/08/02 10:34:10;;;;;;;3.13;1.55;;;;;;;;;;4804530;29;20551;-82
2022/08/02 10:36:38;;;;;;;9.40;2.00;;;;;;;;;;4812035;29;20053;-81
2022/08/02 10:39:05;;;;;;;2.35;1.35;;;;;;;;;;4811916;29;20046;-82
2022/08/02 10:41:45;;;;;;;5.13;1.40;;;;;;;;;;4817877;29;20034;-82
2022/08/02 10:44:37;;;;;;;3.85;1.50;;;;;;;;;;4817531;29;20042;-81
2022/08/02 10:47:22;;;;;;;4.40;1.20;;;;;;;;;;4818858;29;20137;-82
2022/08/02 10:49:59;;;;;;;10.02;2.17;;;;;;;;;;4822602;29;20050;-82
2022/08/02 10:52:28;;;;;;;4.15;1.55;;;;;;;;;;4835438;29;20097;-81
2022/08/02 10:54:57;;;;;;;5.93;1.60;;;;;;;;;;4821268;29;20066;-81
2022/08/02 10:57:37;;;;;;;5.40;1.95;;;;;;;;;;4823715;29;20077;-82
2022/08/02 11:00:11;;;;;;;5.47;1.90;;;;;;;;;;4819581;29;20050;-81
2022/08/02 11:02:44;;;;;;;;;;;25.10;99.90;;;;;;4824509;29;20050;-82
2022/08/02 11:05:30;;;;;;;4.72;1.95;;;;;;;;;;4830835;29;19986;-82
2022/08/02 11:08:15;;;;;;;7.18;2.05;;;;;;;;;;4824939;29;20049;-80
2022/08/02 11:10:44;;;;;;;4.32;1.83;;;;;;;;;;4834530;29;20053;-82
2022/08/02 11:13:10;;;;;;;8.55;2.88;;;;;;;;;;4831550;29;20090;-82
2022/08/02 11:16:01;;;;;;;4.75;2.55;;;;;;;;;;4822225;29;20186;-81
2022/08/02 11:18:46;;;;;;;6.50;2.70;;;;;;;;;;4820650;29;20069;-80
2022/08/02 11:21:23;;;;;;;4.70;2.25;;;;;;;;;;4818426;29;20045;-81
2022/08/02 11:23:49;;;;;;;6.57;2.65;;;;;;;;;;4818135;29;20890;-81
2022/08/02 11:26:42;;;;;;;7.45;2.53;;;26.10;99.90;;;;;;4811944;29;20081;-81
2022/08/02 11:29:08;;;;;;;6.63;2.75;;;;;;;;;;4822301;29;20492;-81
2022/08/02 11:31:42;;;;;;;3.88;2.30;;;;;;;;;;4818781;29;20061;-82
2022/08/02 11:34:09;;;;;;;3.33;2.28;;;;;;;;;;4813458;29;20049;-82
2022/08/02 11:36:49;;;;;;;6.63;3.30;;;;;;;;;;4821025;29;20096;-82
2022/08/02 11:39:16;;;;;;;7.70;3.25;;;;;;;;;;4812890;29;20034;-82
2022/08/02 11:41:43;;;;;;;3.30;2.28;;;;;;;;;;4821364;29;20411;-83
2022/08/02 11:44:12;;;;;;;5.60;2.75;;;;;;;;;;4813440;29;20054;-82
2022/08/02 11:46:38;;;;;;;11.07;3.40;;;;;;;;;;4815228;29;20089;-80
2022/08/02 11:49:12;;;;;;;6.90;2.75;;;;;;;;;;4815954;29;20105;-81
2022/08/02 11:51:39;;;;;;;;;;;;;;;;;;4815603;29;20652;-79
2022/08/02 11:54:05;;;;;;;3.90;2.50;;;;;;;;;;4803590;29;19977;-80
2022/08/02 11:56:34;;;;;;;8.02;3.03;;;;;;;;;;4815679;29;20161;-79
2022/08/02 11:59:10;;;;;;;6.85;2.90;;;;;;;;;;4814198;29;20051;-80
2022/08/02 12:01:38;;;;;;;3.95;2.10;;;;;;;;;;4812487;29;20046;-78
2022/08/02 12:04:06;;;;;;;3.58;1.90;;;;;;;;;;4819108;29;20457;-80
2022/08/02 12:06:32;;;;;;;2.85;1.88;;;;;;;;;;4820893;29;20482;-80
2022/08/02 12:09:05;;;;;;;2.60;2.15;;;;;;;;;;4803178;29;20077;-80
2022/08/02 12:11:32;;;;;;;4.47;2.47;;;;;;;;;;4815512;29;20488;-80
2022/08/02 12:13:59;;;;;;;6.35;2.22;;;;;;;;;;4816813;29;20510;-79
2022/08/02 12:19:21;;;;;;;5.95;3.00;;;;;;;;;;4814557;29;20050;-79
2022/08/02 12:21:48;;;;;;;5.13;2.83;;;;;;;;;;4815258;29;20151;-79
2022/08/02 12:24:26;;;;;;;4.28;2.80;;;;;;;;;;4811935;29;20054;-80
2022/08/02 12:26:53;;;;;;;6.35;2.92;;;;;;;;;;4813036;29;20039;-78
2022/08/02 12:29:28;;;;;;;5.47;2.45;;;;;;;;;;4813286;29;20485;-78
2022/08/02 12:31:54;;;;;;;4.68;2.38;;;;;;;;;;4816656;29;20494;-80
2022/08/02 12:34:21;;;;;;;4.07;2.70;;;;;;;;;;4815054;29;20536;-80
2022/08/02 12:37:07;;;;;;;4.13;2.63;;;;;;;;;;4813544;29;20084;-80
2022/08/02 12:39:34;;;;;;;10.90;2.72;;;;;;;;;;4816088;29;20046;-80
2022/08/02 12:42:01;;;;;;;6.35;2.60;;;;;;;;;;4811909;29;20448;-81
2022/08/02 12:44:27;;;;;;;5.15;2.22;;;;;;;;;;4814816;29;20046;-80
2022/08/02 12:47:04;;;;;;;6.40;2.45;;;;;;;;;;4800922;29;20432;-78
2022/08/02 12:49:33;;;;;;;3.42;2.33;;;;;;;;;;4792625;29;20051;-78
2022/08/02 12:51:59;;;;;;;5.47;2.30;;;;;;;;;;4778231;29;20086;-77
2022/08/02 12:54:33;;;;;;;3.00;2.00;;;;;;;;;;4792541;29;20404;-77
2022/08/02 12:57:12;;;;;;;6.63;1.90;;;;;;;;;;4797830;29;20046;-78
2022/08/02 12:59:39;;;;;;;2.53;2.13;;;;;;;;;;4793423;29;20531;-78
2022/08/02 13:02:06;;;;;;;2.58;1.80;;;;;;;;;;4792726;29;20054;-78
2022/08/02 13:04:32;;;;;;;4.60;2.05;;;;;;;;;;4795942;29;20141;-79
2022/08/02 13:06:59;;;;;;;3.33;2.20;;;;;;;;;;4800217;29;20041;-78
2022/08/02 13:09:25;;;;;;;4.95;2.40;;;;;;;;;;4795985;29;20070;-78
2022/08/02 13:11:51;;;;;;;4.00;2.45;;;;;;;;;;4791770;29;21709;-78
2022/08/02 13:14:17;;;;;;;6.15;2.75;;;;;;;;;;4789642;29;20054;-79
2022/08/02 13:16:44;;;;;;;5.72;3.53;;;;;;;;;;4774758;29;20050;-79
2022/08/02 13:19:12;;;;;;;5.43;3.05;;;;;;;;;;4791546;29;20078;-78
2022/08/02 13:21:38;;;;;;;4.25;2.60;;;;;;;;;;4789491;29;20126;-78
2022/08/02 13:24:04;;;;;;;7.28;3.08;;;;;;;;;;4786455;29;20045;-79
2022/08/02 13:26:30;;;;;;;8.52;3.60;;;;;;;;;;4775960;29;20492;-78
2022/08/02 13:28:56;;;;;;;4.80;3.88;;;;;;;;;;4790395;29;20065;-79
2022/08/02 13:31:23;;;;;;;8.05;4.82;;;;;;;;;;4774838;29;20055;-79
2022/08/02 13:33:49;;;;;;;5.60;4.78;;;;;;;;;;4774620;29;20042;-79
2022/08/02 13:36:15;;;;;;;5.63;4.78;;;;;;;;;;4791908;29;20400;-79
2022/08/02 13:38:41;;;;;;;5.97;4.88;;;;;;;;;;4790323;29;20051;-78
2022/08/02 13:41:07;;;;;;;10.13;5.72;;;;;;;;;;4792287;29;20103;-79
2022/08/02 13:43:33;;;;;;;6.30;5.45;;;;;;;;;;4785508;29;20059;-79
2022/08/02 13:45:59;;;;;;;8.77;5.85;;;;;;;;;;4790722;29;20233;-79
2022/08/02 13:48:25;;;;;;;12.13;6.18;;;;;;;;;;4792668;29;20043;-80
2022/08/02 13:50:51;;;;;;;7.47;5.38;;;;;;;;;;4793239;29;20042;-79
2022/08/02 13:53:21;;;;;;;8.38;5.55;;;;;;;;;;4790479;29;20046;-80
2022/08/02 13:55:47;;;;;;;8.32;5.97;;;;;;;;;;4790272;29;20039;-81
2022/08/02 13:58:13;;;;;;;9.35;6.18;;;;;;;;;;4777266;29;20402;-80
2022/08/02 14:00:39;;;;;;;9.23;6.22;;;;;;;;;;4788000;29;20335;-80
2022/08/02 14:03:06;;;;;;;7.47;5.25;;;;;;;;;;4792037;29;20112;-78
2022/08/02 14:05:32;;;;;;;9.30;5.70;;;;;;;;;;4791029;29;20042;-81
2022/08/02 14:07:59;;;;;;;7.43;5.25;;;;;;;;;;4772237;29;20046;-79
2022/08/02 14:10:25;;;;;;;8.07;5.72;;;;;;;;;;4791452;29;20051;-79
2022/08/02 14:12:52;;;;;;;8.25;6.30;;;;;;;;;;4796645;29;20471;-79
2022/08/02 14:15:18;;;;;;;7.22;5.95;;;;;;;;;;4794888;29;20080;-79
2022/08/02 14:17:46;;;;;;;7.00;5.80;;;;;;;;;;4794271;29;20500;-80
2022/08/02 14:20:13;;;;;;;9.80;5.68;;;;;;;;;;4779988;29;20153;-81
2022/08/02 14:22:39;;;;;;;10.20;5.70;;;;;;;;;;4794264;29;20493;-80
2022/08/02 14:25:06;;;;;;;9.05;5.35;;;;;;;;;;4781173;29;20057;-79
2022/08/02 14:27:32;;;;;;;7.07;5.95;;;;;;;;;;4794790;29;20047;-80
2022/08/02 14:29:58;;;;;;;8.88;5.45;;;;;;;;;;4799842;29;20831;-80
2022/08/02 14:32:25;;;;;;;9.63;5.63;;;;;;;;;;4814769;29;20062;-80
2022/08/02 14:34:51;;;;;;;8.63;4.53;;;;;;;;;;4812579;29;20047;-81
2022/08/02 14:37:17;;;;;;;3.65;3.00;;;;;;;;;;4813871;29;20059;-80
2022/08/02 14:39:43;;;;;;;5.40;3.40;;;;;;;;;;4803005;29;20061;-80
2022/08/02 14:42:09;;;;;;;6.43;3.72;;;;;;;;;;4792046;29;20061;-79
2022/08/02 14:44:38;;;;;;;12.43;4.15;;;;;;;;;;4797808;29;20416;-80
2022/08/02 14:47:04;;;;;;;6.53;4.00;;;;;;;;;;4801898;29;21239;-80
2022/08/02 14:49:31;;;;;;;6.05;4.13;;;;;;;;;;4801562;29;20047;-79
2022/08/02 14:51:57;;;;;;;6.78;4.03;;;;;;;;;;4803455;29;20059;-80
2022/08/02 14:54:28;;;;;;;6.78;3.65;;;;;;;;;;4801313;29;20560;-80